Time;durP1;ratioP1;P1;durP2;ratioP2;P2;SDS_P1;SDS_P2;PMS_P1;PMS_P2;Temp;Humidity;BMP_temperature;BMP_pressure;BME280_temperature;BME280_humidity;BME280_pressure;Samples;Min_cycle;Max_cycle;Signal;HPM_P1;HPM_P2
2022/01/09 00:01:08;;;;;;;77.55;32.00;;;;;;;;;;5000080;28;20206;-57
2022/01/09 00:03:34;;;;;;;85.07;33.42;;;;;;;;;;4992706;28;20183;-57
2022/01/09 00:05:59;;;;;;;87.93;34.42;;;;;;;;;;4998120;28;20549;-57
2022/01/09 00:08:24;;;;;;;88.25;35.00;;;;;;;;;;4989416;28;20302;-57
2022/01/09 00:10:51;;;;;;;83.57;32.65;;;;;;;;;;4979654;28;20802;-58
2022/01/09 00:13:16;;;;;;;81.75;33.47;;;;;;;;;;5016728;28;20716;-57
2022/01/09 00:15:43;;;;;;;75.47;31.90;;;;;;;;;;5003460;28;20176;-57
2022/01/09 00:18:08;;;;;;;63.60;30.50;;;;;;;;;;4999345;28;20222;-57
2022/01/09 00:20:33;;;;;;;61.33;29.95;;;;;;;;;;5002080;28;20681;-57
2022/01/09 00:22:58;;;;;;;68.28;30.25;;;;;;;;;;5003524;28;20190;-57
2022/01/09 00:25:24;;;;;;;79.18;30.48;;;;;;;;;;5003333;28;20183;-57
2022/01/09 00:27:50;;;;;;;74.95;30.20;;;;;;;;;;5001241;28;20195;-57
2022/01/09 00:30:17;;;;;;;73.45;31.58;;;;;;;;;;4998356;28;20221;-57
2022/01/09 00:32:42;;;;;;;82.95;33.40;;;;;;;;;;4999023;28;20580;-57
2022/01/09 00:35:08;;;;;;;85.07;32.13;;;;;;;;;;5002922;28;20206;-57
2022/01/09 00:37:34;;;;;;;82.75;33.47;;;;;;;;;;5004644;28;20183;-57
2022/01/09 00:39:59;;;;;;;91.10;33.40;;;;;;;;;;5000006;28;20187;-57
2022/01/09 00:42:24;;;;;;;83.03;32.88;;;;;;;;;;4999243;28;20203;-57
2022/01/09 00:44:50;;;;;;;99.72;34.03;;;;;;;;;;5007334;28;20915;-58
2022/01/09 00:47:15;;;;;;;89.03;32.08;;;;;;;;;;5003451;28;20183;-57
2022/01/09 00:49:41;;;;;;;86.15;32.97;;;;;;;;;;5001360;28;20208;-58
2022/01/09 00:52:06;;;;;;;87.15;32.10;;;;;;;;;;4997434;28;20189;-57
2022/01/09 00:54:31;;;;;;;85.47;32.95;;;;;;;;;;4999541;28;20222;-57
2022/01/09 00:56:56;;;;;;;96.75;33.00;;;;;;;;;;4998748;28;20471;-57
2022/01/09 00:59:22;;;;;;;85.63;32.60;;;;;;;;;;4996083;28;20246;-56
2022/01/09 01:01:47;;;;;;;75.55;29.60;;;;;;;;;;5003203;28;20189;-57
2022/01/09 01:04:13;;;;;;;74.05;29.25;;;;;;;;;;4998719;28;20179;-57
2022/01/09 01:06:38;;;;;;;66.88;29.33;;;;;;;;;;4994331;28;20188;-57
2022/01/09 01:09:03;;;;;;;71.43;31.13;;;;;;;;;;4997671;28;20592;-57
2022/01/09 01:11:28;;;;;;;74.50;30.50;;;;;;;;;;4984082;28;20195;-57
2022/01/09 01:13:54;;;;;;;74.07;30.50;;;;;;;;;;4978533;28;20270;-57
2022/01/09 01:16:19;;;;;;;81.47;31.88;;;;;;;;;;4980866;28;20249;-57
2022/01/09 01:18:45;;;;;;;85.10;31.50;;;;;;;;;;4996552;28;20221;-57
2022/01/09 01:21:11;;;;;;;76.07;30.50;;;;;;;;;;5000362;28;20203;-56
2022/01/09 01:23:36;;;;;;;76.28;31.83;;;;;;;;;;4991111;28;20221;-56
2022/01/09 01:26:02;;;;;;;86.63;33.50;;;;;;;;;;4993141;28;20708;-56
2022/01/09 01:28:28;;;;;;;72.00;30.67;;;;;;;;;;4995851;28;20245;-56
2022/01/09 01:30:54;;;;;;;73.50;29.67;;;;;;;;;;4998471;28;20183;-57
2022/01/09 01:33:19;;;;;;;71.90;29.00;;;;;;;;;;4977812;28;20768;-57
2022/01/09 01:35:44;;;;;;;69.43;29.88;;;;;;;;;;4978246;28;20199;-57
2022/01/09 01:38:09;;;;;;;63.80;27.58;;;;;;;;;;4983825;28;20176;-57
2022/01/09 01:40:35;;;;;;;72.93;29.83;;;;;;;;;;4988783;28;20176;-57
2022/01/09 01:43:00;;;;;;;65.90;26.00;;;;;;;;;;5006191;28;20668;-58
2022/01/09 01:45:25;;;;;;;65.35;26.08;;;;;;;;;;4994218;28;20179;-57
2022/01/09 01:47:51;;;;;;;66.70;28.67;;;;;;;;;;4998974;28;20244;-57
2022/01/09 01:50:16;;;;;;;62.85;27.73;;;;;;;;;;4994121;28;20210;-57
2022/01/09 01:52:46;;;;;;;61.25;26.30;;;;;;;;;;4996091;28;20175;-57
2022/01/09 01:55:12;;;;;;;62.28;25.15;;;;;;;;;;4996577;28;20656;-57
2022/01/09 01:57:39;;;;;;;58.45;24.50;;;;;;;;;;4998065;28;20179;-57
2022/01/09 02:00:06;;;;;;;55.28;24.98;;;;;;;;;;5002027;28;20198;-57
2022/01/09 02:02:31;;;;;;;58.05;24.70;;;;;;;;;;5002509;28;20187;-57
2022/01/09 02:04:56;;;;;;;56.08;23.60;;;;;;;;;;4992325;28;20745;-58
2022/01/09 02:07:22;;;;;;;56.60;24.17;;;;;;;;;;4995324;28;20195;-56
2022/01/09 02:09:48;;;;;;;49.38;22.50;;;;;;;;;;4995081;28;20198;-57
2022/01/09 02:12:13;;;;;;;52.10;24.90;;;;;;;;;;4999268;28;20186;-56
2022/01/09 02:14:43;;;;;;;60.08;24.25;;;;;;;;;;4984340;28;20190;-56
2022/01/09 02:17:09;;;;;;;53.25;24.38;;;;;;;;;;4997302;28;20183;-57
2022/01/09 02:19:34;;;;;;;51.13;22.92;;;;;;;;;;4999526;28;20807;-57
2022/01/09 02:21:59;;;;;;;51.80;22.55;;;;;;;;;;5001135;28;20206;-57
2022/01/09 02:24:25;;;;;;;50.78;22.63;;;;;;;;;;5001549;28;20201;-57
2022/01/09 02:26:51;;;;;;;51.95;21.27;;;;;;;;;;5000156;28;20661;-57
2022/01/09 02:29:16;;;;;;;52.60;22.48;;;;;;;;;;4997014;28;20286;-57
2022/01/09 02:31:42;;;;;;;48.03;22.00;;;;;;;;;;4993073;28;20606;-57
2022/01/09 02:34:08;;;;;;;49.25;22.23;;;;;;;;;;4999383;28;20214;-57
2022/01/09 02:36:33;;;;;;;53.63;23.00;;;;;;;;;;4976715;28;20183;-56
2022/01/09 02:38:58;;;;;;;43.90;20.80;;;;;;;;;;4977902;28;20184;-57
2022/01/09 02:41:23;;;;;;;42.17;20.30;;;;;;;;;;4987894;28;20199;-57
2022/01/09 02:43:49;;;;;;;49.55;21.20;;;;;;;;;;4997831;28;20187;-57
2022/01/09 02:46:24;;;;;;;41.92;20.02;;;;;;;;;;4994919;28;20183;-57
2022/01/09 02:48:51;;;;;;;37.85;18.58;;;;;;;;;;4998928;28;20620;-57
2022/01/09 02:51:17;;;;;;;29.10;14.48;;;;;;;;;;5005350;28;20186;-57
2022/01/09 02:53:47;;;;;;;28.65;15.05;;;;;;;;;;5001524;28;20911;-57
2022/01/09 02:56:12;;;;;;;33.00;15.93;;;;;;;;;;5001251;28;20722;-57
2022/01/09 02:58:38;;;;;;;27.92;13.43;;;;;;;;;;4996383;28;20179;-57
2022/01/09 03:01:04;;;;;;;18.45;10.73;;;;;;;;;;4997749;28;20270;-57
2022/01/09 03:03:29;;;;;;;23.45;13.75;;;;;;;;;;4994932;28;20212;-57
2022/01/09 03:05:55;;;;;;;27.55;13.90;;;;;;;;;;4990542;28;20672;-57
2022/01/09 03:08:20;;;;;;;27.45;14.52;;;;;;;;;;5003080;28;20229;-57
2022/01/09 03:10:45;;;;;;;29.35;15.27;;;;;;;;;;4994513;28;20182;-57
2022/01/09 03:13:11;;;;;;;23.95;12.80;;;;;;;;;;4996243;28;20183;-57
2022/01/09 03:15:36;;;;;;;26.38;12.95;;;;;;;;;;4995123;28;20176;-57
2022/01/09 03:18:04;;;;;;;22.40;11.45;;;;;;;;;;4993331;28;20176;-57
2022/01/09 03:20:29;;;;;;;22.83;11.10;;;;;;;;;;4998249;28;20954;-57
2022/01/09 03:22:55;;;;;;;21.58;11.05;;;;;;;;;;5000865;28;20183;-58
2022/01/09 03:25:21;;;;;;;19.23;9.95;;;;;;;;;;5005083;28;20191;-58
2022/01/09 03:27:49;;;;;;;21.75;11.00;;;;;;;;;;4995454;28;20183;-56
2022/01/09 03:30:14;;;;;;;20.83;11.35;;;;;;;;;;4995365;28;20680;-56
2022/01/09 03:32:40;;;;;;;10.63;6.80;;;;;;;;;;5005706;28;20182;-56
2022/01/09 03:35:06;;;;;;;13.68;8.60;;;;;;;;;;5004658;28;20202;-56
2022/01/09 03:37:32;;;;;;;13.32;8.00;;;;;;;;;;5000456;28;20211;-56
2022/01/09 03:39:57;;;;;;;16.30;10.38;;;;;;;;;;4979196;28;20191;-56
2022/01/09 03:42:22;;;;;;;16.15;9.93;;;;;;;;;;4995846;28;20733;-56
2022/01/09 03:44:47;;;;;;;12.93;8.55;;;;;;;;;;5006105;28;20171;-56
2022/01/09 03:47:13;;;;;;;14.55;8.32;;;;;;;;;;4997921;28;20189;-56
2022/01/09 03:49:38;;;;;;;11.75;7.53;;;;;;;;;;5005437;28;20195;-56
2022/01/09 03:52:04;;;;;;;12.90;6.80;;;;;;;;;;5000333;28;20179;-57
2022/01/09 03:54:29;;;;;;;14.77;9.35;;;;;;;;;;5002259;28;20196;-56
2022/01/09 03:56:54;;;;;;;17.50;8.25;;;;;;;;;;5003657;28;20187;-56
2022/01/09 03:59:20;;;;;;;15.75;8.10;;;;;;;;;;4992938;28;20191;-57
2022/01/09 04:01:45;;;;;;;13.95;7.63;;;;;;;;;;4979242;28;20772;-57
2022/01/09 04:04:11;;;;;;;12.93;7.88;;;;;;;;;;4981410;28;20265;-57
2022/01/09 04:06:39;;;;;;;8.90;6.28;;;;;;;;;;4997596;28;20267;-57
2022/01/09 04:09:08;;;;;;;11.77;7.30;;;;;;;;;;5001361;28;20238;-57
2022/01/09 04:11:38;;;;;;;10.00;7.00;;;;;;;;;;5002705;28;20179;-57
2022/01/09 04:14:03;;;;;;;10.77;7.00;;;;;;;;;;4995132;28;20193;-57
2022/01/09 04:16:28;;;;;;;12.43;8.30;;;;;;;;;;4998303;28;20577;-57
2022/01/09 04:18:54;;;;;;;12.13;8.18;;;;;;;;;;5005270;28;20553;-57
2022/01/09 04:21:19;;;;;;;18.10;10.93;;;;;;;;;;5000251;28;20205;-57
2022/01/09 04:23:44;;;;;;;14.27;8.50;;;;;;;;;;4998661;28;20198;-58
2022/01/09 04:26:10;;;;;;;14.05;7.63;;;;;;;;;;5003064;28;20193;-58
2022/01/09 04:28:35;;;;;;;14.38;7.78;;;;;;;;;;4999012;28;20644;-57
2022/01/09 04:31:00;;;;;;;8.85;6.82;;;;;;;;;;4993200;28;20207;-57
2022/01/09 04:33:25;;;;;;;13.40;8.55;;;;;;;;;;5000119;28;20199;-57
2022/01/09 04:35:51;;;;;;;17.08;10.18;;;;;;;;;;4997033;28;20199;-57
2022/01/09 04:38:16;;;;;;;13.45;9.35;;;;;;;;;;4995063;28;20271;-57
2022/01/09 04:40:42;;;;;;;13.45;8.85;;;;;;;;;;5003653;28;20187;-57
2022/01/09 04:43:09;;;;;;;11.32;8.70;;;;;;;;;;4997381;28;20187;-57
2022/01/09 04:45:34;;;;;;;14.63;9.57;;;;;;;;;;4999133;28;20175;-57
2022/01/09 04:48:03;;;;;;;10.77;7.75;;;;;;;;;;5004015;28;20618;-57
2022/01/09 04:50:31;;;;;;;12.35;8.07;;;;;;;;;;4997422;28;20203;-57
2022/01/09 04:53:01;;;;;;;11.73;8.55;;;;;;;;;;4996904;28;20208;-57
2022/01/09 04:55:27;;;;;;;9.02;7.70;;;;;;;;;;5007038;28;20183;-57
2022/01/09 04:57:52;;;;;;;10.18;7.28;;;;;;;;;;4998872;28;20238;-57
2022/01/09 05:00:17;;;;;;;12.68;8.10;;;;;;;;;;5000288;28;20207;-57
2022/01/09 05:02:42;;;;;;;10.20;8.30;;;;;;;;;;4995321;28;20197;-57
2022/01/09 05:05:09;;;;;;;11.57;7.68;;;;;;;;;;4997991;28;20264;-57
2022/01/09 05:07:34;;;;;;;9.07;7.25;;;;;;;;;;5000092;28;20273;-57
2022/01/09 05:09:59;;;;;;;9.68;7.43;;;;;;;;;;5000376;28;20282;-57
2022/01/09 05:12:25;;;;;;;9.98;7.90;;;;;;;;;;4989822;28;20575;-57
2022/01/09 05:14:50;;;;;;;5.95;4.63;;;;;;;;;;4997304;28;20186;-57
2022/01/09 05:17:15;;;;;;;5.90;5.30;;;;;;;;;;5000009;28;20172;-57
2022/01/09 05:19:41;;;;;;;6.00;4.43;;;;;;;;;;5003287;28;20186;-57
2022/01/09 05:22:08;;;;;;;6.43;5.55;;;;;;;;;;5001762;28;20716;-57
2022/01/09 05:24:33;;;;;;;6.47;5.00;;;;;;;;;;4981342;28;20222;-57
2022/01/09 05:26:58;;;;;;;5.60;4.30;;;;;;;;;;4978356;28;20215;-57
2022/01/09 05:29:24;;;;;;;6.78;5.55;;;;;;;;;;4989145;28;20687;-57
2022/01/09 05:31:50;;;;;;;5.88;4.93;;;;;;;;;;4994092;28;20211;-57
2022/01/09 05:34:15;;;;;;;4.47;4.07;;;;;;;;;;5001055;28;20199;-57
2022/01/09 05:36:41;;;;;;;4.80;4.30;;;;;;;;;;4994481;28;20214;-56
2022/01/09 05:39:06;;;;;;;4.13;3.80;;;;;;;;;;4999630;28;20644;-56
2022/01/09 05:41:31;;;;;;;3.92;3.28;;;;;;;;;;5002596;28;20631;-56
2022/01/09 05:43:56;;;;;;;3.30;2.97;;;;;;;;;;5018608;28;20197;-57
2022/01/09 05:46:22;;;;;;;4.25;3.75;;;;;;;;;;4977046;28;20619;-56
2022/01/09 05:48:47;;;;;;;3.78;3.40;;;;;;;;;;4978606;28;20518;-56
2022/01/09 05:51:12;;;;;;;4.90;4.43;;;;;;;;;;4997196;28;20189;-57
2022/01/09 05:53:38;;;;;;;8.77;6.45;;;;;;;;;;5005829;28;20589;-56
2022/01/09 05:56:04;;;;;;;5.47;4.93;;;;;;;;;;4992997;28;20186;-58
2022/01/09 05:58:29;;;;;;;6.13;5.10;;;;;;;;;;4993713;28;20701;-57
2022/01/09 06:00:54;;;;;;;5.28;4.50;;;;;;;;;;4994677;28;20237;-57
2022/01/09 06:03:19;;;;;;;6.40;5.32;;;;;;;;;;5003878;28;20877;-57
2022/01/09 06:05:45;;;;;;;4.47;3.72;;;;;;;;;;4998045;28;20179;-57
2022/01/09 06:08:10;;;;;;;6.80;5.85;;;;;;;;;;4996880;28;20248;-57
2022/01/09 06:10:35;;;;;;;5.63;4.10;;;;;;;;;;4998559;28;20632;-57
2022/01/09 06:13:00;;;;;;;4.35;4.03;;;;;;;;;;5005547;28;20270;-57
2022/01/09 06:15:26;;;;;;;5.13;4.63;;;;;;;;;;5005281;28;20237;-57
2022/01/09 06:17:51;;;;;;;4.22;3.83;;;;;;;;;;4998592;28;20291;-56
2022/01/09 06:20:16;;;;;;;5.07;4.28;;;;;;;;;;5001057;28;20194;-57
2022/01/09 06:22:42;;;;;;;4.70;3.97;;;;;;;;;;5001036;28;20987;-56
2022/01/09 06:25:08;;;;;;;6.03;4.50;;;;;;;;;;4993062;28;20752;-56
2022/01/09 06:27:33;;;;;;;5.70;4.82;;;;;;;;;;4994903;28;20182;-56
2022/01/09 06:29:59;;;;;;;7.43;5.07;;;;;;;;;;4997159;28;20282;-56
2022/01/09 06:32:24;;;;;;;5.45;4.90;;;;;;;;;;5001138;28;20318;-57
2022/01/09 06:34:49;;;;;;;6.00;5.10;;;;;;;;;;4993180;28;20196;-57
2022/01/09 06:37:15;;;;;;;5.90;5.30;;;;;;;;;;5000279;28;20175;-57
2022/01/09 06:39:41;;;;;;;6.20;4.95;;;;;;;;;;5000527;28;20571;-57
2022/01/09 06:42:07;;;;;;;7.28;4.60;;;;;;;;;;4990260;28;20653;-57
2022/01/09 06:44:32;;;;;;;15.27;8.00;;;;;;;;;;4994369;28;20191;-57
2022/01/09 06:46:57;;;;;;;8.80;5.70;;;;;;;;;;5004289;28;20649;-57
2022/01/09 06:49:22;;;;;;;5.93;4.80;;;;;;;;;;4976044;28;20322;-57
2022/01/09 06:51:48;;;;;;;6.38;4.78;;;;;;;;;;4978059;28;20186;-57
2022/01/09 06:54:13;;;;;;;5.80;5.25;;;;;;;;;;4995441;28;20210;-57
2022/01/09 06:56:39;;;;;;;4.30;3.95;;;;;;;;;;5001216;28;20195;-57
2022/01/09 06:59:04;;;;;;;3.65;3.35;;;;;;;;;;5005199;28;20175;-57
2022/01/09 07:01:29;;;;;;;3.63;3.35;;;;;;;;;;4996634;28;20188;-57
2022/01/09 07:03:55;;;;;;;4.18;3.78;;;;;;;;;;5000368;28;20190;-56
2022/01/09 07:06:20;;;;;;;4.80;4.40;;;;;;;;;;5002603;28;20280;-56
2022/01/09 07:08:45;;;;;;;7.78;6.40;;;;;;;;;;4987636;28;20801;-56
2022/01/09 07:11:10;;;;;;;6.70;5.88;;;;;;;;;;4979991;28;20172;-57
2022/01/09 07:13:36;;;;;;;8.65;6.90;;;;;;;;;;4982451;28;20183;-56
2022/01/09 07:16:01;;;;;;;5.25;4.80;;;;;;;;;;4993609;28;20190;-56
2022/01/09 07:18:26;;;;;;;5.00;4.50;;;;;;;;;;5003444;28;20186;-57
2022/01/09 07:20:52;;;;;;;4.10;3.70;;;;;;;;;;5001755;28;20189;-56
2022/01/09 07:23:17;;;;;;;3.53;3.25;;;;;;;;;;4993888;28;20207;-56
2022/01/09 07:25:42;;;;;;;5.55;3.20;;;;;;;;;;5000419;28;20667;-56
2022/01/09 07:28:08;;;;;;;3.45;2.97;;;;;;;;;;5000038;28;20600;-56
2022/01/09 07:30:33;;;;;;;3.75;3.40;;;;;;;;;;4983746;28;20998;-56
2022/01/09 07:32:59;;;;;;;3.97;3.40;;;;;;;;;;4980594;28;20582;-56
2022/01/09 07:35:24;;;;;;;3.08;2.78;;;;;;;;;;4984396;28;20213;-56
2022/01/09 07:37:49;;;;;;;5.85;4.80;;;;;;;;;;5001269;28;20187;-56
2022/01/09 07:40:15;;;;;;;6.15;4.80;;;;;;;;;;5009907;28;20250;-57
2022/01/09 07:42:40;;;;;;;6.05;4.75;;;;;;;;;;5003137;28;20180;-57
2022/01/09 07:45:08;;;;;;;7.22;5.68;;;;;;;;;;5000431;28;20271;-57
2022/01/09 07:47:37;;;;;;;10.57;6.28;;;;;;;;;;5003365;28;20563;-56
2022/01/09 07:50:06;;;;;;;6.32;4.47;;;;;;;;;;5001662;28;20231;-57
2022/01/09 07:52:35;;;;;;;4.85;3.97;;;;;;;;;;4997960;28;20273;-57
2022/01/09 07:55:01;;;;;;;26.30;15.52;;;;;;;;;;5000723;28;20193;-57
2022/01/09 07:57:26;;;;;;;11.63;8.98;;;;;;;;;;5001941;28;20268;-57
2022/01/09 07:59:52;;;;;;;12.25;8.10;;;;;;;;;;5000158;28;21018;-56
2022/01/09 08:02:17;;;;;;;8.77;6.40;;;;;;;;;;4995787;28;20249;-57
2022/01/09 08:04:42;;;;;;;14.57;9.02;;;;;;;;;;5001583;28;20715;-56
2022/01/09 08:07:08;;;;;;;13.82;9.60;;;;;;;;;;5002361;28;21025;-57
2022/01/09 08:09:33;;;;;;;17.27;10.63;;;;;;;;;;4994983;28;20200;-57
2022/01/09 08:11:58;;;;;;;16.83;11.63;;;;;;;;;;4985981;28;20190;-55
2022/01/09 08:14:23;;;;;;;19.83;11.90;;;;;;;;;;4979214;28;20180;-57
2022/01/09 08:16:49;;;;;;;21.38;12.95;;;;;;;;;;4979877;28;20181;-56
2022/01/09 08:19:14;;;;;;;22.77;12.05;;;;;;;;;;4991288;28;20673;-56
2022/01/09 08:21:39;;;;;;;35.45;16.52;;;;;;;;;;4992802;28;20191;-57
2022/01/09 08:24:05;;;;;;;60.70;26.58;;;;;;;;;;5002959;28;20214;-56
2022/01/09 08:26:30;;;;;;;34.63;18.00;;;;;;;;;;4997980;28;20187;-56
2022/01/09 08:28:55;;;;;;;21.38;13.57;;;;;;;;;;5005257;28;20691;-57
2022/01/09 08:31:21;;;;;;;16.75;11.45;;;;;;;;;;5005956;28;20262;-57
2022/01/09 08:33:46;;;;;;;19.85;13.70;;;;;;;;;;4980890;28;20180;-57
2022/01/09 08:36:12;;;;;;;13.13;8.63;;;;;;;;;;4978919;28;20200;-57
2022/01/09 08:38:37;;;;;;;12.27;9.23;;;;;;;;;;4985700;28;20198;-58
2022/01/09 08:41:02;;;;;;;12.50;8.80;;;;;;;;;;5001962;28;20546;-57
2022/01/09 08:43:31;;;;;;;10.93;7.90;;;;;;;;;;4999437;28;20179;-56
2022/01/09 08:45:56;;;;;;;12.35;8.82;;;;;;;;;;4996818;28;20183;-57
2022/01/09 08:48:22;;;;;;;11.43;9.10;;;;;;;;;;5003046;28;20179;-57
2022/01/09 08:50:47;;;;;;;11.13;9.10;;;;;;;;;;5000832;28;20184;-57
2022/01/09 08:53:12;;;;;;;15.07;12.50;;;;;;;;;;5003571;28;20209;-56
2022/01/09 08:55:38;;;;;;;16.17;11.27;;;;;;;;;;4997015;28;20190;-57
2022/01/09 08:58:03;;;;;;;20.38;13.55;;;;;;;;;;4998748;28;20175;-57
2022/01/09 09:00:28;;;;;;;20.40;13.95;;;;;;;;;;5002255;28;20198;-57
2022/01/09 09:02:54;;;;;;;15.13;11.23;;;;;;;;;;5005122;28;20771;-57
2022/01/09 09:05:20;;;;;;;17.75;12.10;;;;;;;;;;4998066;28;20198;-56
2022/01/09 09:07:45;;;;;;;15.70;12.65;;;;;;;;;;5000258;28;20297;-56
2022/01/09 09:10:11;;;;;;;13.18;10.20;;;;;;;;;;5000689;28;20211;-59
2022/01/09 09:12:36;;;;;;;12.10;8.07;;;;;;;;;;4998841;28;20646;-56
2022/01/09 09:15:03;;;;;;;13.25;10.70;;;;;;;;;;4991143;28;20184;-57
2022/01/09 09:17:29;;;;;;;12.48;11.10;;;;;;;;;;4977525;28;20180;-57
2022/01/09 09:19:54;;;;;;;13.85;11.00;;;;;;;;;;4979830;28;20184;-57
2022/01/09 09:22:20;;;;;;;14.32;10.90;;;;;;;;;;4998141;28;20191;-57
2022/01/09 09:24:45;;;;;;;11.02;8.05;;;;;;;;;;4994206;28;20191;-57
2022/01/09 09:27:11;;;;;;;10.98;8.98;;;;;;;;;;4995050;28;20586;-58
2022/01/09 09:29:36;;;;;;;13.32;9.32;;;;;;;;;;4992103;28;20199;-58
2022/01/09 09:32:01;;;;;;;14.40;11.70;;;;;;;;;;5000931;28;20658;-57
2022/01/09 09:34:26;;;;;;;13.98;10.10;;;;;;;;;;4998729;28;20290;-58
2022/01/09 09:36:52;;;;;;;12.57;9.98;;;;;;;;;;4982307;28;20953;-58
2022/01/09 09:39:18;;;;;;;17.67;12.57;;;;;;;;;;4978163;28;20184;-58
2022/01/09 09:41:43;;;;;;;36.20;24.13;;;;;;;;;;4984601;28;20187;-58
2022/01/09 09:44:09;;;;;;;21.83;15.57;;;;;;;;;;5000186;28;20175;-57
2022/01/09 09:46:35;;;;;;;22.90;15.88;;;;;;;;;;5006058;28;20193;-58
2022/01/09 09:49:00;;;;;;;44.95;26.63;;;;;;;;;;4998368;28;20298;-58
2022/01/09 09:51:28;;;;;;;23.30;15.60;;;;;;;;;;4993628;28;20261;-58
2022/01/09 09:53:54;;;;;;;20.05;14.60;;;;;;;;;;4996531;28;20206;-58
2022/01/09 09:56:20;;;;;;;20.85;13.68;;;;;;;;;;4999458;28;20190;-58
2022/01/09 09:58:47;;;;;;;14.43;11.55;;;;;;;;;;4996021;28;20186;-56
2022/01/09 10:01:23;;;;;;;17.05;13.93;;;;;;;;;;4998075;28;20281;-57
2022/01/09 10:03:58;;;;;;;20.30;14.77;;;;;;;;;;5000509;28;20961;-57
2022/01/09 10:06:37;;;;;;;27.35;18.63;;;;;;;;;;4998120;28;20189;-57
2022/01/09 10:09:07;;;;;;;20.90;14.18;;;;;;;;;;4997549;28;20209;-57
2022/01/09 10:11:52;;;;;;;21.23;13.98;;;;;;;;;;4996876;28;20190;-56
2022/01/09 10:14:21;;;;;;;24.20;16.67;;;;;;;;;;4990435;28;20195;-57
2022/01/09 10:17:04;;;;;;;23.98;17.85;;;;;;;;;;4991595;28;20195;-58
2022/01/09 10:19:48;;;;;;;24.80;16.88;;;;;;;;;;4977495;28;20285;-58
2022/01/09 10:22:36;;;;;;;54.45;31.13;;;;;;;;;;4995726;28;20258;-59
2022/01/09 10:25:22;;;;;;;54.85;33.20;;;;;;;;;;4998424;28;20195;-57
2022/01/09 10:27:48;;;;;;;46.60;23.83;;;;;;;;;;4991935;28;20191;-58
2022/01/09 10:30:14;;;;;;;97.93;51.17;;;;;;;;;;4993026;28;20210;-57
2022/01/09 10:32:39;;;;;;;53.50;31.52;;;;;;;;;;4993811;28;20172;-58
2022/01/09 10:35:05;;;;;;;57.40;36.20;;;;;;;;;;5006698;28;20190;-57
2022/01/09 10:37:30;;;;;;;37.72;23.92;;;;;;;;;;4999259;28;20215;-57
2022/01/09 10:40:00;;;;;;;37.05;21.38;;;;;;;;;;4988588;28;20226;-56
2022/01/09 10:42:25;;;;;;;38.35;23.92;;;;;;;;;;5000740;28;20179;-56
2022/01/09 10:44:51;;;;;;;42.72;26.17;;;;;;;;;;5002109;28;20601;-56
2022/01/09 10:47:16;;;;;;;38.95;23.48;;;;;;;;;;5001864;28;20264;-56
2022/01/09 10:49:49;;;;;;;40.38;26.10;;;;;;;;;;5000818;28;20314;-57
2022/01/09 10:52:19;;;;;;;36.17;24.25;;;;;;;;;;5007797;28;20570;-57
2022/01/09 10:54:48;;;;;;;46.17;28.27;;;;;;;;;;5002198;28;20309;-57
2022/01/09 10:57:18;;;;;;;46.25;29.35;;;;;;;;;;5002414;28;20174;-57
2022/01/09 10:59:44;;;;;;;55.10;35.67;;;;;;;;;;5009605;28;20540;-57
2022/01/09 11:02:12;;;;;;;41.58;27.67;;;;;;;;;;4999095;28;20875;-56
2022/01/09 11:04:42;;;;;;;42.60;26.55;;;;;;;;;;5001204;28;20175;-57
2022/01/09 11:07:08;;;;;;;42.45;27.17;;;;;;;;;;5003956;28;20183;-56
2022/01/09 11:09:33;;;;;;;37.60;25.25;;;;;;;;;;5008339;28;20214;-57
2022/01/09 11:11:59;;;;;;;36.65;22.58;;;;;;;;;;5010323;28;20175;-57
2022/01/09 11:14:26;;;;;;;40.60;25.58;;;;;;;;;;4999176;28;20198;-57
2022/01/09 11:16:53;;;;;;;41.03;26.63;;;;;;;;;;5008108;28;20606;-57
2022/01/09 11:19:19;;;;;;;39.80;23.77;;;;;;;;;;4994906;28;20176;-56
2022/01/09 11:21:46;;;;;;;38.63;21.25;;;;;;;;;;5003317;28;20495;-56
2022/01/09 11:24:20;;;;;;;37.20;23.50;;;;;;;;;;4999871;28;20186;-57
2022/01/09 11:27:04;;;;;;;45.92;31.30;;;;;;;;;;5003500;28;20659;-56
2022/01/09 11:29:35;;;;;;;31.60;20.95;;;;;;;;;;5002907;28;20211;-56
2022/01/09 11:32:19;;;;;;;29.13;20.05;;;;;;;;;;5000806;28;20183;-57
2022/01/09 11:34:50;;;;;;;28.88;17.90;;;;;;;;;;4999818;28;20203;-57
2022/01/09 11:37:22;;;;;;;25.17;14.93;;;;;;;;;;4997809;28;20559;-56
2022/01/09 11:39:47;;;;;;;23.17;16.30;;;;;;;;;;5004611;28;20180;-57
2022/01/09 11:42:14;;;;;;;26.58;17.52;;;;;;;;;;4990611;28;20824;-56
2022/01/09 11:44:50;;;;;;;31.50;20.33;;;;;;;;;;4998748;28;20182;-57
2022/01/09 11:47:15;;;;;;;33.40;21.98;;;;;;;;;;5001113;28;20707;-56
2022/01/09 11:49:53;;;;;;;34.75;22.92;;;;;;;;;;5000032;28;20217;-57
2022/01/09 11:52:19;;;;;;;32.90;20.08;;;;;;;;;;5004263;28;20182;-57
2022/01/09 11:54:51;;;;;;;32.28;19.38;;;;;;;;;;4998092;28;20191;-58
2022/01/09 11:57:48;;;;;;;34.33;20.35;;;;;;;;;;5003419;28;21021;-57
2022/01/09 12:00:34;;;;;;;32.30;21.48;;;;;;;;;;5002358;28;20253;-57
2022/01/09 12:03:19;;;;;;;36.67;21.17;;;;;;;;;;4990303;28;20291;-57
2022/01/09 12:06:03;;;;;;;37.08;21.80;;;;;;;;;;4998668;28;20190;-57
2022/01/09 12:08:48;;;;;;;39.78;25.98;;;;;;;;;;5001134;28;21061;-58
2022/01/09 12:11:14;;;;;;;31.77;21.58;;;;;;;;;;4995120;28;20721;-58
2022/01/09 12:13:40;;;;;;;25.60;18.08;;;;;;;;;;4992790;28;20209;-58
2022/01/09 12:16:07;;;;;;;28.58;18.65;;;;;;;;;;4995048;28;20172;-58
2022/01/09 12:18:45;;;;;;;24.48;16.42;;;;;;;;;;4993786;28;20178;-57
2022/01/09 12:21:30;;;;;;;23.63;17.23;;;;;;;;;;4993629;28;20188;-57
2022/01/09 12:24:15;;;;;;;16.50;11.18;;;;;;;;;;5002784;28;20277;-57
2022/01/09 12:26:40;;;;;;;17.55;11.10;;;;;;;;;;4998210;28;20191;-57
2022/01/09 12:29:06;;;;;;;21.83;15.05;;;;;;;;;;5000284;28;20198;-57
2022/01/09 12:31:31;;;;;;;20.80;14.13;;;;;;;;;;5000750;28;20657;-57
2022/01/09 12:33:57;;;;;;;25.50;15.70;;;;;;;;;;4997780;28;20182;-57
2022/01/09 12:36:23;;;;;;;29.00;19.60;;;;;;;;;;5001456;28;20179;-57
2022/01/09 12:38:55;;;;;;;26.48;18.20;;;;;;;;;;5002928;28;20756;-57
2022/01/09 12:41:22;;;;;;;19.92;14.63;;;;;;;;;;4993094;28;20275;-57
2022/01/09 12:43:49;;;;;;;22.70;14.30;;;;;;;;;;4999681;28;20581;-57
2022/01/09 12:46:19;;;;;;;28.20;20.40;;;;;;;;;;4999545;28;21170;-57
2022/01/09 12:48:58;;;;;;;34.53;22.00;;;;;;;;;;4998280;28;20272;-57
2022/01/09 12:51:24;;;;;;;34.58;24.38;;;;;;;;;;5001123;28;20179;-57
2022/01/09 12:53:50;;;;;;;25.88;16.13;;;;;;;;;;4990112;28;20202;-57
2022/01/09 12:56:16;;;;;;;19.15;14.00;;;;;;;;;;4996800;28;20536;-57
2022/01/09 12:58:49;;;;;;;21.83;15.40;;;;;;;;;;4998403;28;20175;-58
2022/01/09 13:01:23;;;;;;;23.10;16.80;;;;;;;;;;5000451;28;20175;-57
2022/01/09 13:03:50;;;;;;;81.10;42.60;;;;;;;;;;4994363;28;20674;-58
2022/01/09 13:06:20;;;;;;;98.30;48.78;;;;;;;;;;4994481;28;20180;-57
2022/01/09 13:08:46;;;;;;;33.28;20.48;;;;;;;;;;4997295;28;20290;-57
2022/01/09 13:11:13;;;;;;;27.70;18.40;;;;;;;;;;4999541;28;20856;-58
2022/01/09 13:13:39;;;;;;;25.02;15.70;;;;;;;;;;4996473;28;20242;-58
2022/01/09 13:16:10;;;;;;;25.88;18.90;;;;;;;;;;4991084;28;20214;-57
2022/01/09 13:18:40;;;;;;;17.42;13.43;;;;;;;;;;4992624;28;20657;-57
2022/01/09 13:21:14;;;;;;;22.85;15.98;;;;;;;;;;5002554;28;20183;-57
2022/01/09 13:23:49;;;;;;;37.80;25.02;;;;;;;;;;4990443;28;20183;-59
2022/01/09 13:26:16;;;;;;;42.25;30.33;;;;;;;;;;5006104;28;20182;-56
2022/01/09 13:28:43;;;;;;;116.15;57.40;;;;;;;;;;4997021;28;20179;-57
2022/01/09 13:31:08;;;;;;;51.30;31.90;;;;;;;;;;4998111;28;20187;-57
2022/01/09 13:33:34;;;;;;;47.42;32.58;;;;;;;;;;5000589;28;20270;-56
2022/01/09 13:36:01;;;;;;;52.50;35.45;;;;;;;;;;5002051;28;20203;-57
2022/01/09 13:38:27;;;;;;;46.45;28.67;;;;;;;;;;5000844;28;20720;-58
2022/01/09 13:40:56;;;;;;;66.03;39.40;;;;;;;;;;4999708;28;20215;-57
2022/01/09 13:43:21;;;;;;;78.03;43.75;;;;;;;;;;5002790;28;20179;-57
2022/01/09 13:45:46;;;;;;;27.42;17.92;;;;;;;;;;4996210;28;20943;-58
2022/01/09 13:48:12;;;;;;;31.48;21.25;;;;;;;;;;4999370;28;20183;-58
2022/01/09 13:50:37;;;;;;;56.83;29.38;;;;;;;;;;4996522;28;20234;-58
2022/01/09 13:53:07;;;;;;;31.52;19.40;;;;;;;;;;4998336;28;20233;-57
2022/01/09 13:55:33;;;;;;;58.90;32.67;;;;;;;;;;4995645;28;20984;-57
2022/01/09 13:58:04;;;;;;;65.28;34.70;;;;;;;;;;5005445;28;20193;-57
2022/01/09 14:00:31;;;;;;;48.58;28.45;;;;;;;;;;4998713;28;20184;-57
2022/01/09 14:02:58;;;;;;;38.75;24.08;;;;;;;;;;5001751;28;20191;-57
2022/01/09 14:05:24;;;;;;;56.00;29.52;;;;;;;;;;4989855;28;20691;-57
2022/01/09 14:07:56;;;;;;;29.00;18.60;;;;;;;;;;4999065;28;20613;-58
2022/01/09 14:10:32;;;;;;;31.00;22.33;;;;;;;;;;4996950;28;20598;-57
2022/01/09 14:12:57;;;;;;;43.00;28.45;;;;;;;;;;4997237;28;20214;-57
2022/01/09 14:15:23;;;;;;;41.95;27.58;;;;;;;;;;5001123;28;20775;-57
2022/01/09 14:17:49;;;;;;;63.15;32.15;;;;;;;;;;4992361;28;20191;-57
2022/01/09 14:20:19;;;;;;;96.00;44.55;;;;;;;;;;4993761;28;20247;-57
2022/01/09 14:22:50;;;;;;;87.95;43.47;;;;;;;;;;5002907;28;20182;-57